Time;durP1;ratioP1;P1;durP2;ratioP2;P2;SDS_P1;SDS_P2;PMS_P1;PMS_P2;Temp;Humidity;BMP_temperature;BMP_pressure;BME280_temperature;BME280_humidity;BME280_pressure;Samples;Min_cycle;Max_cycle;Signal;HPM_P1;HPM_P2
2022/06/09 00:01:32;;;;;;;61.65;16.58;;;14.80;99.90;;;;;;4995921;28;20086;-76
2022/06/09 00:04:13;;;;;;;56.42;17.33;;;14.90;99.90;;;;;;4987676;28;20306;-79
2022/06/09 00:06:43;;;;;;;55.42;16.15;;;14.80;99.90;;;;;;4994539;28;20073;-78
2022/06/09 00:09:09;;;;;;;59.95;16.33;;;14.80;99.90;;;;;;4995862;28;20034;-75
2022/06/09 00:11:40;;;;;;;54.95;16.63;;;14.90;99.90;;;;;;4998024;28;20038;-77
2022/06/09 00:14:07;;;;;;;68.80;17.98;;;14.70;99.90;;;;;;4993817;28;20102;-79
2022/06/09 00:16:34;;;;;;;61.58;16.23;;;14.90;99.90;;;;;;4990472;28;20060;-76
2022/06/09 00:19:00;;;;;;;59.40;17.02;;;14.90;99.90;;;;;;4992088;28;20046;-77
2022/06/09 00:21:26;;;;;;;72.32;17.45;;;14.90;99.90;;;;;;5002695;28;20053;-76
2022/06/09 00:23:52;;;;;;;52.63;16.50;;;15.00;99.90;;;;;;5018629;28;20050;-80
2022/06/09 00:26:18;;;;;;;47.80;15.05;;;15.00;99.90;;;;;;4973513;28;20061;-79
2022/06/09 00:28:44;;;;;;;61.45;17.67;;;14.90;99.90;;;;;;4987180;28;20053;-77
2022/06/09 00:31:09;;;;;;;63.67;17.13;;;14.90;99.90;;;;;;4985816;28;21263;-76
2022/06/09 00:33:35;;;;;;;41.97;15.63;;;15.00;99.90;;;;;;4991615;28;20434;-77
2022/06/09 00:36:01;;;;;;;65.00;16.80;;;14.80;99.90;;;;;;4989025;28;20041;-79
2022/06/09 00:38:27;;;;;;;59.50;16.40;;;14.90;99.90;;;;;;4991535;28;20038;-76
2022/06/09 00:40:57;;;;;;;50.72;15.55;;;14.80;99.90;;;;;;4973411;28;20065;-78
2022/06/09 00:43:23;;;;;;;57.08;16.08;;;14.80;99.90;;;;;;4990175;28;20042;-76
2022/06/09 00:46:01;;;;;;;59.38;17.25;;;14.90;99.90;;;;;;5022594;28;20519;-76
2022/06/09 00:48:51;;;;;;;55.40;17.20;;;14.90;99.90;;;;;;4993751;28;20049;-77
2022/06/09 00:51:40;;;;;;;72.35;18.38;;;14.90;99.90;;;;;;4989796;28;20049;-76
2022/06/09 00:54:18;;;;;;;65.78;18.23;;;14.80;99.90;;;;;;5004609;28;20121;-75
2022/06/09 00:57:08;;;;;;;56.95;17.15;;;14.80;99.90;;;;;;4983802;28;20057;-76
2022/06/09 00:59:35;;;;;;;50.80;17.63;;;14.80;99.90;;;;;;4988406;28;20068;-76
2022/06/09 01:02:06;;;;;;;55.28;17.52;;;14.70;99.90;;;;;;5002917;28;20045;-74
2022/06/09 01:04:33;;;;;;;54.53;18.35;;;14.80;99.90;;;;;;4987938;28;20042;-77
2022/06/09 01:07:14;;;;;;;53.58;17.75;;;14.70;99.90;;;;;;5001755;28;20034;-75
2022/06/09 01:09:40;;;;;;;60.58;19.35;;;14.80;99.90;;;;;;4988547;28;20127;-78
2022/06/09 01:12:23;;;;;;;53.45;18.73;;;14.80;99.90;;;;;;5001636;28;20041;-78
2022/06/09 01:14:49;;;;;;;52.15;19.23;;;14.70;99.90;;;;;;5006011;28;20069;-76
2022/06/09 01:17:26;;;;;;;60.65;19.52;;;14.60;99.90;;;;;;4993252;28;20046;-78
2022/06/09 01:20:01;;;;;;;58.25;19.77;;;14.70;99.90;;;;;;4979481;28;20357;-76
2022/06/09 01:22:58;;;;;;;57.92;19.90;;;14.60;99.90;;;;;;4991509;28;20069;-76
2022/06/09 01:25:55;;;;;;;53.55;19.40;;;14.70;99.90;;;;;;5003216;28;20515;-76
2022/06/09 01:29:05;;;;;;;61.58;20.55;;;14.50;99.90;;;;;;4998619;28;20049;-76
2022/06/09 01:31:37;;;;;;;61.45;19.42;;;14.70;99.90;;;;;;4993169;28;20046;-76
2022/06/09 01:34:23;;;;;;;67.25;19.70;;;14.50;99.90;;;;;;4990378;28;20089;-78
2022/06/09 01:37:01;;;;;;;52.13;18.90;;;14.70;99.90;;;;;;4984006;28;20444;-77
2022/06/09 01:39:46;;;;;;;70.43;20.17;;;14.60;99.90;;;;;;5002001;28;20073;-77
2022/06/09 01:42:25;;;;;;;55.70;19.17;;;14.60;99.90;;;;;;4991970;28;20041;-78
2022/06/09 01:44:54;;;;;;;64.03;20.42;;;14.60;99.90;;;;;;4993344;28;20052;-75
2022/06/09 01:47:22;;;;;;;66.13;21.00;;;14.60;99.90;;;;;;4992973;28;20488;-77
2022/06/09 01:49:53;;;;;;;78.10;21.77;;;14.60;99.90;;;;;;4988897;28;20046;-80
2022/06/09 01:52:20;;;;;;;61.53;21.95;;;14.50;99.90;;;;;;5001985;28;20684;-77
2022/06/09 01:54:47;;;;;;;53.97;20.75;;;14.60;99.90;;;;;;4990029;28;20030;-76
2022/06/09 01:57:22;;;;;;;51.58;20.27;;;14.50;99.90;;;;;;4984864;28;20157;-76
2022/06/09 02:00:20;;;;;;;64.40;21.80;;;14.50;99.90;;;;;;4984447;28;20103;-76
2022/06/09 02:03:05;;;;;;;58.70;21.63;;;14.60;99.90;;;;;;4990216;28;20058;-76
2022/06/09 02:05:45;;;;;;;70.55;23.25;;;14.40;99.90;;;;;;4991061;28;20042;-77
2022/06/09 02:08:15;;;;;;;70.45;22.42;;;14.70;99.90;;;;;;4989736;28;20045;-75
2022/06/09 02:10:47;;;;;;;55.60;22.95;;;14.50;99.90;;;;;;4990670;28;20038;-78
2022/06/09 02:13:20;;;;;;;63.05;23.13;;;14.60;99.90;;;;;;5010423;28;20084;-78
2022/06/09 02:15:50;;;;;;;64.15;23.63;;;14.50;99.90;;;;;;4992433;28;20037;-78
2022/06/09 02:18:19;;;;;;;59.95;22.90;;;14.50;99.90;;;;;;4998497;28;20054;-77
2022/06/09 02:21:16;;;;;;;63.10;22.77;;;14.50;99.90;;;;;;4987629;28;20045;-78
2022/06/09 02:23:46;;;;;;;64.05;23.00;;;14.50;99.90;;;;;;4969454;28;20133;-77
2022/06/09 02:26:14;;;;;;;62.47;23.55;;;14.40;99.90;;;;;;4946557;28;20062;-77
2022/06/09 02:28:40;;;;;;;64.45;23.02;;;14.40;99.90;;;;;;4953048;28;20051;-76
2022/06/09 02:31:07;;;;;;;58.75;24.00;;;14.40;99.90;;;;;;4963739;28;20053;-76
2022/06/09 02:33:33;;;;;;;66.20;23.83;;;14.40;99.90;;;;;;4945673;28;20499;-76
2022/06/09 02:35:58;;;;;;;65.05;22.35;;;14.40;99.90;;;;;;4947553;28;20046;-75
2022/06/09 02:38:24;;;;;;;62.65;23.73;;;14.30;99.90;;;;;;4961515;28;20201;-74
2022/06/09 02:40:51;;;;;;;58.90;23.30;;;14.40;99.90;;;;;;4934576;28;20443;-78
2022/06/09 02:43:17;;;;;;;60.13;23.70;;;14.30;99.90;;;;;;4948825;28;20062;-77
2022/06/09 02:45:43;;;;;;;57.95;22.13;;;14.30;99.90;;;;;;4931924;28;20058;-78
2022/06/09 02:48:09;;;;;;;65.05;23.52;;;14.20;99.90;;;;;;4946161;28;20446;-77
2022/06/09 02:50:36;;;;;;;63.45;22.90;;;14.30;99.90;;;;;;4970264;28;20136;-79
2022/06/09 02:53:06;;;;;;;56.13;22.55;;;14.20;99.90;;;;;;4955211;28;20055;-77
2022/06/09 02:55:32;;;;;;;53.30;21.08;;;14.30;99.90;;;;;;4960535;28;20054;-78
2022/06/09 02:58:10;;;;;;;64.63;23.08;;;14.20;99.90;;;;;;4972980;28;20050;-77
2022/06/09 03:00:37;;;;;;;59.25;23.42;;;14.30;99.90;;;;;;4986877;28;20084;-76
2022/06/09 03:03:05;;;;;;;63.65;24.40;;;14.20;99.90;;;;;;4991175;28;20072;-78
2022/06/09 03:05:33;;;;;;;68.15;24.10;;;14.20;99.90;;;;;;4987202;28;20077;-78
2022/06/09 03:07:59;;;;;;;57.72;23.75;;;14.20;99.90;;;;;;4998079;28;21015;-75
2022/06/09 03:10:25;;;;;;;63.20;25.40;;;14.20;99.90;;;;;;5016376;28;20046;-76
2022/06/09 03:12:51;;;;;;;67.47;25.33;;;14.30;99.90;;;;;;4997787;28;20112;-77
2022/06/09 03:15:20;;;;;;;64.38;27.70;;;14.10;99.90;;;;;;5000958;28;20053;-77
2022/06/09 03:17:46;;;;;;;67.25;27.65;;;14.20;99.90;;;;;;4995772;28;20037;-76
2022/06/09 03:20:19;;;;;;;59.50;24.95;;;14.20;99.90;;;;;;4973835;28;20042;-79
2022/06/09 03:22:45;;;;;;;60.38;26.15;;;14.30;99.90;;;;;;4989164;28;20057;-81
2022/06/09 03:25:11;;;;;;;68.68;25.92;;;14.20;99.90;;;;;;4985480;28;20057;-80
2022/06/09 03:27:39;;;;;;;72.97;26.25;;;14.30;99.90;;;;;;4989701;28;20103;-79
2022/06/09 03:30:06;;;;;;;63.38;25.02;;;14.20;99.90;;;;;;5011328;28;20052;-76
2022/06/09 03:32:32;;;;;;;68.05;26.77;;;14.30;99.90;;;;;;4991618;28;20460;-78
2022/06/09 03:34:57;;;;;;;70.80;28.33;;;14.20;99.90;;;;;;4970288;28;20054;-82
2022/06/09 03:37:23;;;;;;;66.97;28.25;;;14.30;99.90;;;;;;4997314;28;20120;-82
2022/06/09 03:39:49;;;;;;;74.97;28.50;;;14.20;99.90;;;;;;4995135;28;20054;-77
2022/06/09 03:42:15;;;;;;;65.22;28.77;;;14.20;99.90;;;;;;4988354;28;20045;-79
2022/06/09 03:44:40;;;;;;;70.90;28.38;;;14.30;99.90;;;;;;4984996;28;20493;-76
2022/06/09 03:47:07;;;;;;;68.15;28.33;;;14.20;99.90;;;;;;5001523;28;20052;-77
2022/06/09 03:49:33;;;;;;;77.47;29.90;;;14.30;99.90;;;;;;4989016;28;20374;-80
2022/06/09 03:51:58;;;;;;;66.07;28.00;;;14.30;99.90;;;;;;4990106;28;20057;-78
2022/06/09 03:54:24;;;;;;;85.85;29.67;;;14.40;99.90;;;;;;4989242;28;20046;-80
2022/06/09 03:56:51;;;;;;;62.85;28.08;;;14.20;99.90;;;;;;4987177;28;20048;-77
2022/06/09 03:59:17;;;;;;;67.88;28.02;;;14.30;99.90;;;;;;4992099;28;20132;-77
2022/06/09 04:01:43;;;;;;;69.18;29.55;;;14.30;99.90;;;;;;4989745;28;20462;-78
2022/06/09 04:04:09;;;;;;;80.63;29.80;;;14.30;99.90;;;;;;4994444;28;20456;-78
2022/06/09 04:06:35;;;;;;;76.13;30.33;;;14.30;99.90;;;;;;4988825;28;20468;-79
2022/06/09 04:09:01;;;;;;;66.43;27.48;;;14.30;99.90;;;;;;4992199;28;20041;-80
2022/06/09 04:11:27;;;;;;;67.55;27.80;;;14.40;99.90;;;;;;4991405;28;20037;-76
2022/06/09 04:13:52;;;;;;;62.88;27.85;;;14.30;99.90;;;;;;4991513;28;20041;-78
2022/06/09 04:16:21;;;;;;;63.75;27.15;;;14.40;99.90;;;;;;4986843;28;20101;-78
2022/06/09 04:18:49;;;;;;;62.08;27.02;;;14.30;99.90;;;;;;4976969;28;20064;-79
2022/06/09 04:21:14;;;;;;;62.90;26.73;;;14.40;99.90;;;;;;5015894;28;20072;-78
2022/06/09 04:23:40;;;;;;;51.90;26.60;;;14.40;99.90;;;;;;5013760;28;20026;-77
2022/06/09 04:26:06;;;;;;;59.47;26.75;;;14.50;99.90;;;;;;5034005;28;20066;-78
2022/06/09 04:28:31;;;;;;;65.38;28.55;;;14.50;99.90;;;;;;4990615;28;20038;-76
2022/06/09 04:30:57;;;;;;;65.63;28.48;;;14.40;99.90;;;;;;5000551;28;20061;-76
2022/06/09 04:33:22;;;;;;;48.22;24.75;;;14.50;99.90;;;;;;4990819;28;20072;-76
2022/06/09 04:35:48;;;;;;;54.08;26.17;;;14.60;99.90;;;;;;4997737;28;20054;-78
2022/06/09 04:38:14;;;;;;;57.20;26.63;;;14.50;99.90;;;;;;4974403;28;20042;-80
2022/06/09 04:40:41;;;;;;;51.05;25.40;;;14.60;99.90;;;;;;4980468;28;20042;-79
2022/06/09 04:43:10;;;;;;;56.10;26.70;;;14.50;99.90;;;;;;4962432;28;20109;-76
2022/06/09 04:45:37;;;;;;;48.13;25.00;;;14.50;99.90;;;;;;4972205;28;20042;-76
2022/06/09 04:48:03;;;;;;;47.42;25.60;;;14.50;99.90;;;;;;4961303;28;20038;-78
2022/06/09 04:50:29;;;;;;;56.47;27.55;;;14.60;99.90;;;;;;4976685;28;20037;-77
2022/06/09 04:52:55;;;;;;;50.05;27.02;;;14.50;99.90;;;;;;5003511;28;20121;-79
2022/06/09 04:55:21;;;;;;;50.92;27.83;;;14.50;99.90;;;;;;4971161;28;20190;-79
2022/06/09 04:57:46;;;;;;;53.75;28.25;;;14.40;99.90;;;;;;4975254;28;20085;-78
2022/06/09 05:00:17;;;;;;;69.45;28.45;;;14.50;99.90;;;;;;4974426;28;20476;-76
2022/06/09 05:02:43;;;;;;;59.00;28.27;;;14.50;99.90;;;;;;4970415;28;20046;-78
2022/06/09 05:05:20;;;;;;;47.30;27.63;;;14.60;99.90;;;;;;4972063;28;20045;-76
2022/06/09 05:07:46;;;;;;;51.70;29.35;;;14.60;99.90;;;;;;4999457;28;20114;-82
2022/06/09 05:10:15;;;;;;;56.95;30.52;;;14.50;99.90;;;;;;4979597;28;20122;-78
2022/06/09 05:12:41;;;;;;;55.35;31.85;;;14.60;99.90;;;;;;4968987;28;20048;-80
2022/06/09 05:15:10;;;;;;;56.92;31.13;;;14.50;99.90;;;;;;4984963;28;21255;-75
2022/06/09 05:17:36;;;;;;;54.70;33.10;;;14.60;99.90;;;;;;4985282;28;20400;-80
2022/06/09 05:20:02;;;;;;;60.90;34.20;;;14.50;99.90;;;;;;4977576;28;20068;-79
2022/06/09 05:22:27;;;;;;;60.70;33.05;;;14.60;99.90;;;;;;4981923;28;20042;-77
2022/06/09 05:24:57;;;;;;;64.95;34.75;;;14.70;99.90;;;;;;4984362;28;20081;-78
2022/06/09 05:27:24;;;;;;;62.20;35.22;;;14.80;99.90;;;;;;4965339;28;20512;-78
2022/06/09 05:29:49;;;;;;;64.03;33.08;;;14.90;99.90;;;;;;4987221;28;20066;-77
2022/06/09 05:32:15;;;;;;;63.70;33.30;;;15.00;99.90;;;;;;4993946;28;20455;-79
2022/06/09 05:34:41;;;;;;;64.15;34.95;;;14.90;99.90;;;;;;4951023;28;20596;-78
2022/06/09 05:37:06;;;;;;;63.83;32.85;;;15.00;99.90;;;;;;4974484;28;20141;-78
2022/06/09 05:45:06;;;;;;;57.03;32.83;;;15.10;99.90;;;;;;4991147;28;20125;-83
2022/06/09 05:47:31;;;;;;;53.25;33.25;;;15.20;99.90;;;;;;4966535;28;20049;-79
2022/06/09 05:49:57;;;;;;;46.97;29.90;;;15.40;99.90;;;;;;4985370;28;20034;-81
2022/06/09 05:52:26;;;;;;;44.67;27.95;;;15.30;99.90;;;;;;4970256;28;20041;-78
2022/06/09 05:54:53;;;;;;;38.13;26.90;;;15.30;99.90;;;;;;5010728;28;20042;-79
2022/06/09 05:57:20;;;;;;;46.75;27.77;;;15.40;99.90;;;;;;4986260;28;20066;-78
2022/06/09 05:59:46;;;;;;;38.58;26.75;;;15.30;99.90;;;;;;4978349;28;20030;-77
2022/06/09 06:02:15;;;;;;;36.33;26.23;;;15.30;99.90;;;;;;4979095;28;20451;-76
2022/06/09 06:04:41;;;;;;;35.92;26.20;;;15.30;99.90;;;;;;4972063;28;20066;-80
2022/06/09 06:07:07;;;;;;;39.15;27.98;;;15.30;99.90;;;;;;4986975;28;20065;-77
2022/06/09 06:09:32;;;;;;;40.05;28.00;;;15.40;99.90;;;;;;4997281;28;20092;-79
2022/06/09 06:11:58;;;;;;;35.83;27.58;;;15.30;99.90;;;;;;4968838;28;20480;-78
2022/06/09 06:14:24;;;;;;;36.78;27.10;;;15.30;99.90;;;;;;4973690;28;20057;-77
2022/06/09 06:16:50;;;;;;;39.45;27.08;;;15.30;99.90;;;;;;4972582;28;20046;-81
2022/06/09 06:19:18;;;;;;;35.95;26.60;;;15.30;99.90;;;;;;4966765;28;20046;-78
2022/06/09 06:21:45;;;;;;;34.00;25.92;;;15.30;99.90;;;;;;4993589;28;20054;-81
2022/06/09 06:24:12;;;;;;;38.97;26.63;;;15.50;99.90;;;;;;4971940;28;20053;-79
2022/06/09 06:26:38;;;;;;;30.90;23.80;;;15.70;99.90;;;;;;4987309;28;20072;-77
2022/06/09 06:29:06;;;;;;;36.72;25.13;;;15.60;99.90;;;;;;4988391;28;20056;-82
2022/06/09 06:31:32;;;;;;;30.17;24.05;;;15.70;99.90;;;;;;4993892;28;20037;-78
2022/06/09 06:33:58;;;;;;;31.98;24.33;;;15.80;99.90;;;;;;4995957;28;20099;-79
2022/06/09 06:36:24;;;;;;;26.58;21.08;;;15.90;99.90;;;;;;4973581;28;20085;-79
2022/06/09 06:38:50;;;;;;;23.35;16.35;;;16.10;99.90;;;;;;4972033;28;20072;-79
2022/06/09 06:41:17;;;;;;;31.90;21.75;;;16.10;99.90;;;;;;4992301;28;23154;-78
2022/06/09 06:43:47;;;;;;;26.23;22.23;;;16.40;99.90;;;;;;4995113;28;20497;-80
2022/06/09 06:46:16;;;;;;;20.98;15.63;;;16.50;99.90;;;;;;4992371;28;20085;-77
2022/06/09 06:48:43;;;;;;;22.02;18.38;;;16.70;99.90;;;;;;5001509;28;20046;-76
2022/06/09 06:51:09;;;;;;;21.70;17.92;;;16.40;99.90;;;;;;4976091;28;20045;-76
2022/06/09 06:53:36;;;;;;;24.88;18.98;;;16.40;99.90;;;;;;4986431;28;20046;-75
2022/06/09 06:56:03;;;;;;;18.75;15.75;;;16.60;99.90;;;;;;4986466;28;20100;-74
2022/06/09 06:58:28;;;;;;;19.38;14.68;;;16.60;99.90;;;;;;5001939;28;20107;-77
2022/06/09 07:00:56;;;;;;;17.83;15.27;;;16.70;99.90;;;;;;4976020;28;20046;-76
2022/06/09 07:03:22;;;;;;;16.60;13.75;;;16.70;99.90;;;;;;4997623;28;20057;-77
2022/06/09 07:05:50;;;;;;;16.48;13.57;;;16.80;99.90;;;;;;4987717;28;20038;-81
2022/06/09 07:08:18;;;;;;;19.17;13.63;;;16.90;99.90;;;;;;4992167;28;20045;-83
2022/06/09 07:10:45;;;;;;;24.05;13.23;;;16.80;99.90;;;;;;4990921;28;20034;-78
2022/06/09 07:13:11;;;;;;;26.25;12.82;;;17.00;99.90;;;;;;5014336;28;20042;-82
2022/06/09 07:19:19;;;;;;;14.63;12.32;;;17.00;99.90;;;;;;5013609;28;20487;-79
2022/06/09 07:21:45;;;;;;;13.90;12.30;;;16.80;99.90;;;;;;4971689;28;20496;-78
2022/06/09 07:24:14;;;;;;;14.20;10.68;;;16.90;99.90;;;;;;5006763;28;20053;-80
2022/06/09 07:26:40;;;;;;;14.50;11.43;;;16.80;99.90;;;;;;4990812;28;20054;-81
2022/06/09 07:29:06;;;;;;;15.15;10.95;;;16.80;99.90;;;;;;4996179;28;20040;-79
2022/06/09 07:31:31;;;;;;;14.88;10.40;;;16.80;99.90;;;;;;4966708;28;20470;-79
2022/06/09 07:33:57;;;;;;;11.38;9.25;;;16.90;99.90;;;;;;4975821;28;20081;-82
2022/06/09 07:36:25;;;;;;;12.95;9.38;;;17.00;99.90;;;;;;4983274;28;20081;-83
2022/06/09 07:38:51;;;;;;;13.82;8.60;;;17.10;99.90;;;;;;4997421;28;20140;-81
2022/06/09 07:41:20;;;;;;;13.20;7.75;;;17.00;99.90;;;;;;4967924;28;20039;-82
2022/06/09 07:43:46;;;;;;;12.00;8.85;;;17.00;99.90;;;;;;4986767;28;20112;-83
2022/06/09 07:46:15;;;;;;;12.23;7.97;;;17.20;99.90;;;;;;4999129;28;20069;-82
2022/06/09 07:48:42;;;;;;;7.53;5.47;;;17.20;99.90;;;;;;4981259;28;20116;-82
2022/06/09 07:51:11;;;;;;;13.48;3.60;;;17.20;99.90;;;;;;4983271;28;20035;-83
2022/06/09 07:53:36;;;;;;;4.95;3.30;;;17.20;99.90;;;;;;4990757;28;20042;-81
2022/06/09 07:56:02;;;;;;;5.38;3.38;;;17.30;99.90;;;;;;4979174;28;20058;-80
2022/06/09 07:58:28;;;;;;;6.57;3.58;;;17.30;99.90;;;;;;4980439;28;20409;-80
2022/06/09 08:01:50;;;;;;;6.95;3.42;;;17.40;99.90;;;;;;4986340;28;20050;-81
2022/06/09 08:04:16;;;;;;;5.22;2.42;;;17.40;99.90;;;;;;4983352;28;20046;-81
2022/06/09 08:06:45;;;;;;;4.85;2.63;;;17.30;99.90;;;;;;5005761;28;20133;-80
2022/06/09 08:09:12;;;;;;;4.80;2.33;;;17.50;99.90;;;;;;4982617;28;20053;-81
2022/06/09 08:11:40;;;;;;;6.93;2.55;;;17.60;99.90;;;;;;4988069;28;20108;-79
2022/06/09 08:14:08;;;;;;;4.82;2.63;;;17.70;99.90;;;;;;4979359;28;20081;-82
2022/06/09 08:16:52;;;;;;;5.57;2.45;;;17.80;99.90;;;;;;4984089;28;20045;-81
2022/06/09 08:19:18;;;;;;;4.23;2.53;;;17.90;99.90;;;;;;4960632;28;20750;-79
2022/06/09 08:21:44;;;;;;;4.18;2.22;;;17.90;99.90;;;;;;4990077;28;20474;-82
2022/06/09 08:24:10;;;;;;;9.10;2.60;;;18.10;99.90;;;;;;4968137;28;20076;-80
2022/06/09 08:26:36;;;;;;;5.22;2.25;;;18.20;99.90;;;;;;4980984;28;20042;-82
2022/06/09 08:29:02;;;;;;;5.90;1.88;;;18.30;99.90;;;;;;4992370;28;20354;-80
2022/06/09 08:31:28;;;;;;;9.85;2.25;;;18.20;99.90;;;;;;4990411;28;20096;-80
2022/06/09 08:33:54;;;;;;;10.98;2.08;;;18.30;99.90;;;;;;5011054;28;20377;-80
2022/06/09 08:36:20;;;;;;;3.83;1.42;;;18.40;99.90;;;;;;4991610;28;20104;-78
2022/06/09 08:38:46;;;;;;;4.93;1.42;;;18.50;99.90;;;;;;4993292;28;20050;-81
2022/06/09 08:41:31;;;;;;;7.35;1.60;;;18.40;99.90;;;;;;5011385;28;20065;-80
2022/06/09 08:44:08;;;;;;;6.35;1.58;;;18.60;99.90;;;;;;5022080;28;20049;-78
2022/06/09 08:47:08;;;;;;;6.50;1.48;;;18.70;99.90;;;;;;5000769;28;20041;-80
2022/06/09 08:49:57;;;;;;;7.07;1.58;;;18.80;99.90;;;;;;5000341;28;20085;-79
2022/06/09 08:52:41;;;;;;;8.38;1.63;;;18.90;99.90;;;;;;5002290;28;20444;-81
2022/06/09 08:55:26;;;;;;;6.82;1.23;;;18.90;99.90;;;;;;5005710;28;20045;-83
2022/06/09 08:57:58;;;;;;;3.88;1.27;;;18.90;99.90;;;;;;5008810;28;20056;-79
2022/06/09 09:00:27;;;;;;;7.15;1.27;;;19.10;99.90;;;;;;5015368;28;20472;-80
2022/06/09 09:03:04;;;;;;;7.35;1.50;;;19.20;99.90;;;;;;5003256;28;20050;-81
2022/06/09 09:05:40;;;;;;;5.93;1.58;;;19.20;99.90;;;;;;5016663;28;20034;-80
2022/06/09 09:08:10;;;;;;;6.57;1.23;;;19.30;99.90;;;;;;4993169;28;20140;-76
2022/06/09 09:10:38;;;;;;;4.03;1.15;;;19.40;99.90;;;;;;5000941;28;20045;-78
2022/06/09 09:13:38;;;;;;;7.95;1.48;;;19.40;99.90;;;;;;4992837;28;20497;-77
2022/06/09 09:16:21;;;;;;;6.65;1.38;;;19.50;99.90;;;;;;5009952;28;20058;-76
2022/06/09 09:18:53;;;;;;;6.07;1.33;;;19.10;99.90;;;;;;5006431;28;20116;-76
2022/06/09 09:21:57;;;;;;;7.10;1.58;;;19.00;99.90;;;;;;4992048;28;20239;-77
2022/06/09 09:24:37;;;;;;;6.75;1.58;;;19.10;99.90;;;;;;4975270;28;20136;-79
2022/06/09 09:27:13;;;;;;;5.57;1.45;;;19.00;99.90;;;;;;4989618;28;20054;-77
2022/06/09 09:29:48;;;;;;;5.72;1.40;;;19.30;99.90;;;;;;4998270;28;20037;-76
2022/06/09 09:32:25;;;;;;;5.07;1.10;;;19.20;99.90;;;;;;5005163;28;20050;-76
2022/06/09 09:34:51;;;;;;;6.22;1.40;;;19.30;99.90;;;;;;5003428;28;20381;-77
2022/06/09 09:37:35;;;;;;;4.78;1.10;;;19.50;99.90;;;;;;4994620;28;20136;-78
2022/06/09 09:40:16;;;;;;;5.10;1.23;;;19.40;99.90;;;;;;4985901;28;20060;-76
2022/06/09 09:42:44;;;;;;;6.28;1.48;;;19.70;99.90;;;;;;4986877;28;20049;-78
2022/06/09 09:45:10;;;;;;;6.30;1.42;;;19.80;99.90;;;;;;4990934;28;20149;-79
2022/06/09 09:47:45;;;;;;;7.10;1.67;;;19.90;99.90;;;;;;4993982;28;20118;-80
2022/06/09 09:50:23;;;;;;;8.23;1.45;;;20.20;99.90;;;;;;4990051;28;20048;-77
2022/06/09 09:52:56;;;;;;;7.32;2.25;;;20.20;99.90;;;;;;4985781;28;20137;-81
2022/06/09 09:55:28;;;;;;;8.77;1.50;;;20.50;99.90;;;;;;4990300;28;20136;-81
2022/06/09 09:58:09;;;;;;;10.27;1.70;;;20.70;99.90;;;;;;4998659;28;20055;-76
2022/06/09 10:00:35;;;;;;;5.88;1.52;;;20.70;99.90;;;;;;5000377;28;20073;-80
2022/06/09 10:09:37;;;;;;;9.07;1.50;;;20.70;99.90;;;;;;5009090;28;20053;-76
2022/06/09 10:12:23;;;;;;;7.90;1.38;;;20.60;99.90;;;;;;4909041;28;20048;-76
2022/06/09 10:15:04;;;;;;;8.27;1.70;;;20.50;99.90;;;;;;4898506;29;20143;-78
2022/06/09 10:17:41;;;;;;;9.27;1.67;;;20.70;99.90;;;;;;4902458;29;20419;-80
2022/06/09 10:20:25;;;;;;;9.02;1.98;;;20.60;99.90;;;;;;4887240;29;20516;-80
2022/06/09 10:23:01;;;;;;;6.10;1.42;;;20.60;99.90;;;;;;4902398;29;20045;-77
2022/06/09 10:25:33;;;;;;;12.95;1.40;;;20.70;99.90;;;;;;4903837;29;20052;-75
2022/06/09 10:28:36;;;;;;;8.68;1.98;;;20.90;99.90;;;;;;4883624;29;20131;-77
2022/06/09 10:31:13;;;;;;;7.20;1.50;;;20.60;99.90;;;;;;4879792;29;20052;-77
2022/06/09 10:33:57;;;;;;;8.05;1.60;;;20.40;99.90;;;;;;4906773;29;20051;-76
2022/06/09 10:36:40;;;;;;;5.70;1.50;;;20.40;99.90;;;;;;4910362;29;20044;-80
2022/06/09 10:39:14;;;;;;;6.63;1.35;;;20.40;99.90;;;;;;4890767;29;20063;-79
2022/06/09 10:41:57;;;;;;;9.57;1.45;;;20.50;99.90;;;;;;4890588;29;20063;-77
2022/06/09 10:44:30;;;;;;;6.35;1.48;;;20.60;99.90;;;;;;4907118;29;20071;-77
2022/06/09 10:56:03;;;;;;;10.27;1.67;;;20.10;99.90;;;;;;4953609;28;20122;-79
2022/06/09 10:58:36;;;;;;;6.40;1.30;;;20.40;99.90;;;;;;4928536;28;20130;-78
2022/06/09 11:01:03;;;;;;;7.07;1.40;;;20.80;99.90;;;;;;4938116;28;21171;-79
2022/06/09 11:03:40;;;;;;;5.25;1.10;;;20.90;99.90;;;;;;4933599;28;20059;-75
2022/06/09 11:06:18;;;;;;;5.05;1.38;;;21.10;99.90;;;;;;4945461;28;20079;-78
2022/06/09 11:09:02;;;;;;;7.20;1.30;;;21.10;99.90;;;;;;4933593;28;20051;-77
2022/06/09 11:11:42;;;;;;;8.70;1.60;;;21.10;99.90;;;;;;4919438;28;20134;-78
2022/06/09 11:14:42;;;;;;;6.30;1.40;;;21.40;99.90;;;;;;4932212;28;20165;-75
2022/06/09 11:17:28;;;;;;;5.68;1.40;;;21.50;99.90;;;;;;4943161;28;20051;-75
2022/06/09 11:20:20;;;;;;;4.50;1.27;;;21.50;99.90;;;;;;4939092;28;20042;-78
2022/06/09 11:23:00;;;;;;;8.40;1.40;;;21.60;99.90;;;;;;4929409;28;20070;-77
2022/06/09 11:25:51;;;;;;;6.57;1.38;;;21.70;99.90;;;;;;4929854;29;20522;-76
2022/06/09 11:28:47;;;;;;;4.10;1.10;;;21.60;99.90;;;;;;4915188;29;20116;-76
2022/06/09 11:31:43;;;;;;;8.95;1.45;;;22.00;99.90;;;;;;4988086;28;20046;-77
2022/06/09 11:34:27;;;;;;;9.30;1.95;;;22.30;99.90;;;;;;4978035;28;20082;-77
2022/06/09 11:37:29;;;;;;;5.18;1.40;;;22.50;99.90;;;;;;5004014;28;20080;-77
2022/06/09 11:40:05;;;;;;;9.27;1.50;;;22.50;99.90;;;;;;4971139;28;20072;-77
2022/06/09 11:42:55;;;;;;;9.35;1.33;;;22.20;99.90;;;;;;4985626;28;20042;-80
2022/06/09 11:45:49;;;;;;;9.02;1.65;;;22.40;99.90;;;;;;4973277;28;20045;-78
2022/06/09 11:48:28;;;;;;;14.02;1.67;;;22.10;99.90;;;;;;4971624;28;20042;-79
2022/06/09 11:50:55;;;;;;;6.47;1.27;;;21.40;99.90;;;;;;4967739;28;20861;-80
2022/06/09 11:53:26;;;;;;;8.48;1.30;;;21.60;99.90;;;;;;4965915;28;20225;-78
2022/06/09 11:56:33;;;;;;;5.55;1.10;;;21.30;99.90;;;;;;4967771;28;20050;-78
2022/06/09 11:59:23;;;;;;;8.38;1.50;;;21.10;99.90;;;;;;4984825;28;20062;-80
2022/06/09 12:02:11;;;;;;;7.35;1.40;;;21.40;99.90;;;;;;4968460;28;20125;-78
2022/06/09 12:05:01;;;;;;;6.80;1.40;;;21.20;99.90;;;;;;4997578;28;20112;-78
2022/06/09 12:08:18;;;;;;;8.05;1.30;;;21.00;99.90;;;;;;4969583;28;20053;-78
2022/06/09 12:10:57;;;;;;;8.40;1.20;;;21.70;99.90;;;;;;4924812;28;20655;-78
2022/06/09 12:13:27;;;;;;;5.72;1.20;;;22.00;99.90;;;;;;4929878;28;20138;-78
2022/06/09 12:15:56;;;;;;;13.30;1.58;;;22.20;99.90;;;;;;4924374;28;20351;-77
2022/06/09 12:18:29;;;;;;;6.15;1.40;;;22.40;99.90;;;;;;4920967;29;20071;-79
2022/06/09 12:21:01;;;;;;;4.93;1.30;;;22.20;99.90;;;;;;4908303;28;20051;-78
2022/06/09 12:24:15;;;;;;;6.38;1.45;;;22.40;99.90;;;;;;4937960;28;20405;-77
2022/06/09 12:26:42;;;;;;;6.88;1.55;;;22.40;99.90;;;;;;4918923;28;20070;-79
2022/06/09 12:29:34;;;;;;;6.25;1.60;;;22.70;99.90;;;;;;4919326;28;20040;-80
2022/06/09 12:32:08;;;;;;;6.35;1.30;;;22.70;99.90;;;;;;4906884;29;20051;-78
2022/06/09 12:34:54;;;;;;;10.32;1.60;;;22.80;99.90;;;;;;4909376;29;20803;-78
2022/06/09 12:37:23;;;;;;;8.63;1.80;;;22.90;99.90;;;;;;4903772;29;20511;-76
2022/06/09 12:39:54;;;;;;;7.05;1.45;;;22.80;99.90;;;;;;4903719;29;20118;-75
2022/06/09 12:42:24;;;;;;;6.03;1.50;;;22.50;99.90;;;;;;4901138;29;20598;-78
2022/06/09 12:45:06;;;;;;;8.80;1.70;;;22.20;99.90;;;;;;4906104;29;20035;-77
2022/06/09 12:47:33;;;;;;;4.75;1.35;;;22.00;99.90;;;;;;4926107;29;20047;-80
2022/06/09 12:50:19;;;;;;;5.57;1.63;;;22.10;99.90;;;;;;4905261;29;20086;-79
2022/06/09 12:52:45;;;;;;;5.32;1.38;;;22.60;99.90;;;;;;4928189;29;20039;-77
2022/06/09 12:55:26;;;;;;;6.40;1.60;;;22.70;99.90;;;;;;4915150;29;20087;-77
2022/06/09 12:58:14;;;;;;;13.15;1.48;;;22.60;99.90;;;;;;4919243;29;20055;-78
2022/06/09 13:04:22;;;;;;;7.35;1.90;;;21.70;99.90;;;;;;4939526;29;20134;-78
2022/06/09 13:06:48;;;;;;;6.95;1.60;;;21.70;99.90;;;;;;4932608;29;20502;-77
2022/06/09 13:09:24;;;;;;;8.13;1.83;;;21.20;99.90;;;;;;4967924;28;20218;-78
2022/06/09 13:14:43;;;;;;;7.10;1.55;;;21.00;99.90;;;;;;5002502;28;20385;-80
2022/06/09 13:17:22;;;;;;;7.03;1.42;;;21.10;99.90;;;;;;5003623;28;20104;-77
2022/06/09 13:20:03;;;;;;;5.43;1.42;;;21.60;99.90;;;;;;4986462;28;20112;-78
2022/06/09 13:22:28;;;;;;;6.03;1.55;;;21.90;99.90;;;;;;4985813;28;20053;-78
2022/06/09 13:24:55;;;;;;;6.80;1.17;;;21.80;99.90;;;;;;4984511;28;20069;-75
2022/06/09 13:27:28;;;;;;;4.75;1.25;;;21.90;99.90;;;;;;4998378;28;20480;-78
2022/06/09 13:30:07;;;;;;;8.27;1.50;;;22.20;99.90;;;;;;4997172;28;20050;-79
2022/06/09 13:32:43;;;;;;;4.13;1.13;;;22.10;99.90;;;;;;4997929;28;20453;-79
2022/06/09 13:35:27;;;;;;;7.13;1.30;;;22.00;99.90;;;;;;4999991;28;20124;-77